Strona główna
METAR-TAF:

METAR-TAF

Lotnisko :

Aberdeen, Maryland, Stany Zjednoczone

Szerokość geograficzna: 39-28N, Długość geograficzna: 076-10W, wysokość: 18 m

Aktualna obserwacja pogody

Raport powstał 36 minut temu, godzina 16:54 UTC
Cisza
Temperatura 27°C
Wilgotność 62%
Ciśnienie 1012 hPa
Widzialność: 16.1 km
Rozproszone chmury na wysokości 10000 ft
Przerywane chmury na wysokości 20000 ft

METAR: KAPG 241654Z 00000KT 10SM SCT100 BKN200 27/19 A2988 RMK SLP121

czas: 13:30 (17:30 UTC)


TAF: brakujący

Obserwacja i prognoza pogody dla ponad 4000 lotnisk (raport METAR i TAF).

Dostępne stacje oznaczono żółtymi i czerwonymi punktami na mapie.

Najedź kursorem aby zobaczyć nazwę stacji.

Kliknij aby zobaczyć obserwacje i prognozy pogody.

Aby zmienić mapę: kliknij na zielony przycisk z czarnym krzyżykiem, aby powiększyć; na zielony przycisk z myślnikiem, aby pomniejszyć; na zielone strzałki, aby przejść do map sąsiednich.


METAR-TAF: